Time;durP1;ratioP1;P1;durP2;ratioP2;P2;SDS_P1;SDS_P2;PMS_P1;PMS_P2;Temp;Humidity;BMP_temperature;BMP_pressure;BME280_temperature;BME280_humidity;BME280_pressure;Samples;Min_cycle;Max_cycle;Signal;HPM_P1;HPM_P2
2024/01/12 00:00:11;;;;;;;41.03;18.73;;;-1.80;67.60;;;;;;4942816;28;115097;-81
2024/01/12 00:02:39;;;;;;;38.55;17.77;;;-1.80;67.60;;;;;;4925331;28;115971;-81
2024/01/12 00:05:08;;;;;;;40.38;18.30;;;-1.80;67.60;;;;;;4927448;28;114428;-79
2024/01/12 00:07:35;;;;;;;40.55;19.92;;;-1.80;67.60;;;;;;4945031;28;114455;-80
2024/01/12 00:10:03;;;;;;;39.35;19.67;;;-1.80;67.70;;;;;;4926076;28;116003;-81
2024/01/12 00:12:31;;;;;;;42.22;19.83;;;-1.80;67.70;;;;;;4928861;28;114798;-80
2024/01/12 00:15:01;;;;;;;38.38;19.08;;;-1.80;67.60;;;;;;4930714;28;114662;-80
2024/01/12 00:17:32;;;;;;;37.45;18.60;;;-1.80;67.60;;;;;;4930552;28;114788;-80
2024/01/12 00:19:59;;;;;;;41.85;20.38;;;-1.70;67.60;;;;;;4929211;28;116855;-81
2024/01/12 00:22:27;;;;;;;37.78;19.65;;;-1.70;67.50;;;;;;4930540;28;114623;-80
2024/01/12 00:24:55;;;;;;;47.38;22.58;;;-1.80;67.50;;;;;;4929948;28;114757;-79
2024/01/12 00:27:22;;;;;;;43.15;20.77;;;-1.80;67.40;;;;;;4931014;28;114342;-81
2024/01/12 00:29:50;;;;;;;44.13;21.17;;;-1.90;67.50;;;;;;4928849;28;115373;-80
2024/01/12 00:32:18;;;;;;;42.67;20.45;;;-1.90;67.70;;;;;;4926899;28;114804;-81
2024/01/12 00:34:46;;;;;;;42.35;19.63;;;-1.90;67.80;;;;;;4928812;28;114704;-81
2024/01/12 00:37:13;;;;;;;44.42;20.23;;;-1.90;67.80;;;;;;4927679;28;114718;-81
2024/01/12 00:39:40;;;;;;;39.80;19.05;;;-1.90;67.80;;;;;;4942940;28;115094;-81
2024/01/12 00:42:08;;;;;;;43.65;21.55;;;-1.90;67.80;;;;;;4926568;28;114693;-80
2024/01/12 00:44:35;;;;;;;36.03;18.55;;;-1.90;67.80;;;;;;4928516;28;114318;-80
2024/01/12 00:47:04;;;;;;;39.25;19.15;;;-1.90;67.90;;;;;;4928751;28;114385;-80
2024/01/12 00:49:32;;;;;;;45.90;19.70;;;-2.00;67.90;;;;;;4927520;28;115055;-80
2024/01/12 00:51:59;;;;;;;44.85;18.55;;;-2.00;68.00;;;;;;4927527;28;114757;-80
2024/01/12 00:54:29;;;;;;;39.97;18.48;;;-2.00;68.10;;;;;;4928142;28;115127;-80
2024/01/12 00:56:56;;;;;;;42.22;19.08;;;-2.00;68.10;;;;;;4928257;28;114550;-80
2024/01/12 00:59:24;;;;;;;41.42;18.73;;;-2.10;68.10;;;;;;4910115;28;115170;-80
2024/01/12 01:01:56;;;;;;;40.53;18.70;;;-2.00;68.20;;;;;;4927326;28;114718;-79
2024/01/12 01:04:25;;;;;;;38.83;17.45;;;-2.00;68.20;;;;;;4928202;28;114474;-80
2024/01/12 01:06:53;;;;;;;42.95;19.55;;;-2.00;68.30;;;;;;4928215;28;114336;-79
2024/01/12 01:09:21;;;;;;;40.13;17.58;;;-2.00;68.20;;;;;;4942244;28;115163;-80
2024/01/12 01:11:52;;;;;;;41.20;18.48;;;-2.00;68.30;;;;;;4942479;28;114662;-80
2024/01/12 01:14:22;;;;;;;45.38;18.98;;;-2.00;68.30;;;;;;4926556;28;114883;-79
2024/01/12 01:16:49;;;;;;;40.30;19.30;;;-2.00;68.40;;;;;;4928004;28;114507;-79
2024/01/12 01:19:17;;;;;;;37.45;18.42;;;-2.00;68.50;;;;;;4926468;28;115177;-79
2024/01/12 01:21:44;;;;;;;37.85;18.60;;;-2.10;68.50;;;;;;4925494;28;114744;-79
2024/01/12 01:24:12;;;;;;;44.90;20.05;;;-2.00;68.60;;;;;;4942558;28;114649;-80
2024/01/12 01:26:39;;;;;;;43.53;19.98;;;-2.00;68.60;;;;;;4926494;28;114508;-79
2024/01/12 01:29:06;;;;;;;42.50;18.70;;;-2.00;68.60;;;;;;4925229;28;115669;-79
2024/01/12 01:31:34;;;;;;;42.10;19.05;;;-2.00;68.70;;;;;;4925232;28;117268;-80
2024/01/12 01:34:02;;;;;;;42.83;19.15;;;-1.90;68.80;;;;;;4927748;28;114581;-80
2024/01/12 01:36:30;;;;;;;41.30;19.17;;;-1.90;68.80;;;;;;4928044;28;114644;-79
2024/01/12 01:38:57;;;;;;;43.17;20.27;;;-1.90;68.80;;;;;;4926239;28;115313;-80
2024/01/12 01:41:25;;;;;;;42.35;20.20;;;-1.90;68.80;;;;;;4909031;28;117047;-80
2024/01/12 01:43:53;;;;;;;48.72;22.10;;;-1.90;68.80;;;;;;4925931;28;114555;-81
2024/01/12 01:46:21;;;;;;;43.97;20.33;;;-1.90;68.80;;;;;;4926072;28;114676;-82
2024/01/12 01:48:48;;;;;;;48.53;20.73;;;-1.90;68.80;;;;;;4941504;28;115089;-80
2024/01/12 01:51:16;;;;;;;52.50;22.52;;;-1.80;68.80;;;;;;4941627;28;114817;-79
2024/01/12 01:53:43;;;;;;;45.28;21.17;;;-1.90;68.80;;;;;;4927967;28;114260;-79
2024/01/12 01:56:10;;;;;;;52.55;21.83;;;-1.90;68.80;;;;;;4934148;28;114662;-81
2024/01/12 01:58:38;;;;;;;56.72;24.63;;;-1.90;68.90;;;;;;4927127;28;116462;-81
2024/01/12 02:01:08;;;;;;;60.38;22.60;;;-2.00;69.00;;;;;;4942413;28;115772;-81
2024/01/12 02:03:36;;;;;;;54.42;24.20;;;-2.10;69.10;;;;;;4948373;28;114708;-81
2024/01/12 02:06:04;;;;;;;60.35;24.90;;;-2.10;69.20;;;;;;4941658;28;114647;-81
2024/01/12 02:08:32;;;;;;;53.95;22.90;;;-2.20;69.30;;;;;;4933907;28;115160;-80
2024/01/12 02:10:59;;;;;;;60.15;24.85;;;-2.20;69.40;;;;;;4927198;28;115958;-80
2024/01/12 02:13:26;;;;;;;64.07;25.77;;;-2.20;69.50;;;;;;4910823;28;114870;-80
2024/01/12 02:15:54;;;;;;;67.55;25.55;;;-2.20;69.60;;;;;;4928227;28;114428;-80
2024/01/12 02:18:21;;;;;;;53.28;23.65;;;-2.20;69.60;;;;;;4924823;28;117268;-81
2024/01/12 02:20:56;;;;;;;46.38;21.00;;;-2.20;69.70;;;;;;4941211;28;114638;-80
2024/01/12 02:23:23;;;;;;;;;;;-2.30;69.70;;;;;;4942301;28;114584;-79
2024/01/12 02:25:51;;;;;;;61.13;21.92;;;-2.40;69.60;;;;;;4927729;28;114652;-79
2024/01/12 02:28:18;;;;;;;48.35;19.10;;;-2.40;69.60;;;;;;4924786;28;115207;-79
2024/01/12 02:30:45;;;;;;;53.47;21.25;;;-2.50;69.70;;;;;;4924798;28;114863;-79
2024/01/12 02:33:13;;;;;;;46.92;20.65;;;-2.50;69.80;;;;;;4941074;28;114605;-80
2024/01/12 02:35:40;;;;;;;44.22;17.88;;;-2.60;69.90;;;;;;4926588;28;114767;-81
2024/01/12 02:38:11;;;;;;;47.90;20.20;;;-2.60;70.00;;;;;;4941192;28;115043;-80
2024/01/12 02:40:38;;;;;;;44.42;18.95;;;-2.60;70.00;;;;;;4925235;28;114699;-80
2024/01/12 02:43:06;;;;;;;36.20;15.10;;;-2.60;70.10;;;;;;4926928;28;114732;-79
2024/01/12 02:45:34;;;;;;;39.30;16.15;;;-2.60;70.10;;;;;;4925547;28;114466;-80
2024/01/12 02:48:01;;;;;;;42.13;19.25;;;-2.60;70.00;;;;;;4925902;28;115017;-79
2024/01/12 02:50:28;;;;;;;44.35;18.55;;;-2.60;70.00;;;;;;4926339;28;115177;-79
2024/01/12 02:52:56;;;;;;;42.50;19.23;;;-2.50;70.10;;;;;;4926854;28;114530;-80
2024/01/12 02:55:23;;;;;;;44.92;18.38;;;-2.40;70.10;;;;;;4926349;28;114550;-79
2024/01/12 02:57:51;;;;;;;45.97;20.13;;;-2.40;69.90;;;;;;4924127;28;115521;-79
2024/01/12 03:00:18;;;;;;;42.08;19.83;;;-2.30;69.90;;;;;;4924308;28;114985;-80
2024/01/12 03:02:45;;;;;;;43.10;18.60;;;-2.30;69.80;;;;;;4926738;28;114614;-81
2024/01/12 03:05:13;;;;;;;44.63;17.77;;;-2.30;69.80;;;;;;4926014;28;114850;-80
2024/01/12 03:07:40;;;;;;;45.25;18.77;;;-2.20;69.70;;;;;;4926022;28;115336;-79
2024/01/12 03:10:08;;;;;;;44.55;17.42;;;-2.20;69.70;;;;;;4926183;28;115066;-80
2024/01/12 03:12:37;;;;;;;46.25;20.05;;;-2.10;69.60;;;;;;4925299;28;114363;-80
2024/01/12 03:15:05;;;;;;;39.20;17.42;;;-2.10;69.50;;;;;;4924997;28;114670;-80
2024/01/12 03:17:32;;;;;;;42.75;17.30;;;-2.10;69.50;;;;;;4940313;28;115291;-80
2024/01/12 03:20:00;;;;;;;39.15;17.45;;;-2.10;69.50;;;;;;4925310;28;114597;-81
2024/01/12 03:22:29;;;;;;;44.55;19.40;;;-2.00;69.50;;;;;;4925804;28;114363;-80
2024/01/12 03:24:56;;;;;;;44.45;19.42;;;-2.00;69.50;;;;;;4940724;28;114434;-80
2024/01/12 03:27:23;;;;;;;44.05;19.55;;;-1.90;69.50;;;;;;4923392;28;116347;-80
2024/01/12 03:29:51;;;;;;;43.17;18.85;;;-1.90;69.50;;;;;;4925887;28;114740;-80
2024/01/12 03:32:19;;;;;;;49.60;20.45;;;-1.90;69.40;;;;;;4926661;28;115509;-81
2024/01/12 03:34:47;;;;;;;45.38;17.95;;;-1.90;69.40;;;;;;4909601;28;114991;-80
2024/01/12 03:37:14;;;;;;;42.13;18.23;;;-1.90;69.40;;;;;;4940569;28;116314;-79
2024/01/12 03:39:41;;;;;;;46.40;18.25;;;-1.90;69.40;;;;;;4909147;28;114769;-79
2024/01/12 03:42:11;;;;;;;51.42;21.00;;;-1.80;69.40;;;;;;4926418;28;114754;-79
2024/01/12 03:44:38;;;;;;;39.03;17.60;;;-1.80;69.40;;;;;;4930655;28;114265;-79
2024/01/12 03:47:07;;;;;;;44.33;19.20;;;-1.80;69.40;;;;;;4957382;28;114717;-79
2024/01/12 03:49:35;;;;;;;45.28;19.63;;;-1.80;69.40;;;;;;4930689;28;116211;-81
2024/01/12 03:52:03;;;;;;;41.88;18.48;;;-1.70;69.40;;;;;;4930596;28;115033;-79
2024/01/12 03:54:42;;;;;;;43.67;19.75;;;-1.70;69.40;;;;;;4928372;28;114377;-80
2024/01/12 03:57:09;;;;;;;47.15;20.65;;;-1.70;69.30;;;;;;4928691;28;116534;-80
2024/01/12 03:59:37;;;;;;;48.53;20.42;;;-1.70;69.30;;;;;;4928771;28;114583;-80
2024/01/12 04:02:04;;;;;;;44.33;20.08;;;-1.70;69.40;;;;;;4944537;28;114542;-80
2024/01/12 04:04:31;;;;;;;49.35;21.88;;;-1.60;69.30;;;;;;4944842;28;114440;-81
2024/01/12 04:06:59;;;;;;;53.78;21.30;;;-1.60;69.30;;;;;;4928090;28;115038;-80
2024/01/12 04:09:26;;;;;;;50.67;19.83;;;-1.70;69.30;;;;;;4943610;28;114928;-80
2024/01/12 04:11:54;;;;;;;49.95;20.77;;;-1.70;69.30;;;;;;4927708;28;114656;-80
2024/01/12 04:14:21;;;;;;;52.45;22.92;;;-1.80;69.40;;;;;;4928741;28;114470;-80
2024/01/12 04:16:48;;;;;;;50.92;22.38;;;-1.70;69.40;;;;;;4928720;28;115315;-80
2024/01/12 04:19:16;;;;;;;53.67;23.00;;;-1.70;69.40;;;;;;4912815;28;117377;-81
2024/01/12 04:21:43;;;;;;;55.03;23.05;;;-1.70;69.40;;;;;;4928666;28;114543;-80
2024/01/12 04:24:12;;;;;;;56.67;24.50;;;-1.70;69.40;;;;;;4912626;28;114411;-79
2024/01/12 04:26:39;;;;;;;52.00;22.15;;;-1.80;69.40;;;;;;4928514;28;117325;-80
2024/01/12 04:29:07;;;;;;;59.67;23.05;;;-1.70;69.40;;;;;;4926544;28;115238;-80
2024/01/12 04:31:40;;;;;;;51.58;21.58;;;-1.70;69.50;;;;;;4929318;28;114322;-80
2024/01/12 04:34:07;;;;;;;52.45;21.90;;;-1.70;69.50;;;;;;4929525;28;114612;-79
2024/01/12 04:36:35;;;;;;;61.33;24.00;;;-1.70;69.40;;;;;;4941976;28;115039;-80
2024/01/12 04:39:02;;;;;;;62.70;23.80;;;-1.70;69.30;;;;;;4927793;28;114604;-80
2024/01/12 04:41:30;;;;;;;63.03;24.88;;;-1.70;69.20;;;;;;4927530;28;114330;-80
2024/01/12 04:43:58;;;;;;;64.93;24.50;;;-1.80;69.30;;;;;;4928602;28;114388;-80
2024/01/12 04:46:26;;;;;;;61.20;22.90;;;-1.80;69.30;;;;;;4942466;28;115153;-79
2024/01/12 04:48:53;;;;;;;60.03;23.83;;;-1.80;69.40;;;;;;4894270;28;118179;-79
2024/01/12 04:51:21;;;;;;;59.65;24.25;;;-1.80;69.40;;;;;;4927282;28;114537;-81
2024/01/12 04:53:48;;;;;;;57.80;22.38;;;-1.80;69.50;;;;;;4927683;28;114364;-80
2024/01/12 04:56:16;;;;;;;59.10;22.63;;;-1.80;69.50;;;;;;4926112;28;115053;-80
2024/01/12 04:58:44;;;;;;;64.65;24.15;;;-1.80;69.50;;;;;;4927474;28;114749;-79
2024/01/12 05:01:11;;;;;;;63.38;24.00;;;-1.80;69.60;;;;;;4927057;28;114395;-80
2024/01/12 05:03:41;;;;;;;64.07;24.15;;;-1.80;69.60;;;;;;4944236;28;114471;-80
2024/01/12 05:06:09;;;;;;;56.67;23.17;;;-1.80;69.60;;;;;;4926885;28;115526;-80
2024/01/12 05:08:37;;;;;;;61.97;22.23;;;-1.80;69.60;;;;;;4925986;28;114754;-80
2024/01/12 05:11:04;;;;;;;63.67;24.63;;;-1.80;69.60;;;;;;4926941;28;114461;-81
2024/01/12 05:13:31;;;;;;;65.35;25.40;;;-1.80;69.60;;;;;;4928239;28;114599;-79
2024/01/12 05:15:59;;;;;;;58.65;22.67;;;-1.70;69.70;;;;;;4926042;28;118845;-81
2024/01/12 05:18:26;;;;;;;59.10;23.13;;;-1.80;69.70;;;;;;4926267;28;114614;-80
2024/01/12 05:20:54;;;;;;;52.55;20.48;;;-1.80;69.70;;;;;;4943041;28;114603;-80
2024/01/12 05:23:22;;;;;;;56.78;21.23;;;-1.80;69.70;;;;;;4929138;28;114726;-79
2024/01/12 05:25:52;;;;;;;59.35;20.63;;;-1.80;69.70;;;;;;4930331;28;115281;-79
2024/01/12 05:28:19;;;;;;;44.50;18.95;;;-1.80;69.80;;;;;;4941585;28;114706;-80
2024/01/12 05:30:49;;;;;;;51.97;20.33;;;-1.80;69.80;;;;;;4944715;28;114944;-79
2024/01/12 05:33:17;;;;;;;50.00;20.25;;;-1.70;69.90;;;;;;4950183;28;115112;-79
2024/01/12 05:35:45;;;;;;;51.47;19.08;;;-1.70;69.90;;;;;;4926105;28;115044;-80
2024/01/12 05:38:13;;;;;;;50.15;20.77;;;-1.80;69.80;;;;;;4927386;28;114648;-79
2024/01/12 05:40:41;;;;;;;62.30;23.23;;;-1.80;69.90;;;;;;4928438;28;114662;-81
2024/01/12 05:43:09;;;;;;;61.30;23.55;;;-1.80;70.00;;;;;;4927246;28;114586;-79
2024/01/12 05:45:39;;;;;;;52.70;22.13;;;-1.80;70.00;;;;;;4927432;28;115067;-78
2024/01/12 05:48:06;;;;;;;50.97;20.35;;;-1.80;70.00;;;;;;4910273;28;114910;-79
2024/01/12 05:50:34;;;;;;;60.95;23.40;;;-1.80;70.00;;;;;;4941870;28;114463;-79
2024/01/12 05:53:01;;;;;;;54.05;21.45;;;-1.80;70.10;;;;;;4910722;28;114427;-79
2024/01/12 05:55:29;;;;;;;53.58;21.52;;;-1.70;70.10;;;;;;4924862;28;115762;-80
2024/01/12 05:57:58;;;;;;;50.90;20.60;;;-1.80;70.10;;;;;;4925565;28;114706;-80
2024/01/12 06:00:26;;;;;;;49.00;19.52;;;-1.70;70.10;;;;;;4927874;28;114507;-81
2024/01/12 06:02:54;;;;;;;57.58;20.38;;;-1.70;70.00;;;;;;4910501;28;114911;-80
2024/01/12 06:05:21;;;;;;;46.42;18.20;;;-1.70;70.10;;;;;;4926531;28;116518;-80
2024/01/12 06:07:49;;;;;;;49.03;18.70;;;-1.80;70.10;;;;;;4942173;28;115772;-80
2024/01/12 06:10:16;;;;;;;47.40;19.17;;;-1.80;70.10;;;;;;4926024;28;114264;-81
2024/01/12 06:12:44;;;;;;;51.08;19.20;;;-1.80;70.20;;;;;;4926050;28;114796;-79
2024/01/12 06:15:11;;;;;;;50.63;19.95;;;-1.90;70.20;;;;;;4925741;28;115669;-80
2024/01/12 06:17:39;;;;;;;51.95;19.90;;;-1.90;70.30;;;;;;4926030;28;114853;-80
2024/01/12 06:20:07;;;;;;;48.13;18.20;;;-1.90;70.40;;;;;;4925761;28;114351;-79
2024/01/12 06:22:34;;;;;;;46.53;17.63;;;-1.90;70.50;;;;;;4925865;28;114814;-79
2024/01/12 06:25:02;;;;;;;47.25;18.35;;;-1.90;70.60;;;;;;4926101;28;115059;-80
2024/01/12 06:27:29;;;;;;;46.42;18.70;;;-2.00;70.60;;;;;;4925396;28;115943;-80
2024/01/12 06:29:57;;;;;;;55.38;20.20;;;-1.90;70.70;;;;;;4926717;28;114544;-81
2024/01/12 06:32:24;;;;;;;58.97;21.88;;;-1.90;70.80;;;;;;4925325;28;114413;-80
2024/01/12 06:34:52;;;;;;;47.53;17.75;;;-2.00;70.80;;;;;;4923096;28;115544;-80
2024/01/12 06:37:19;;;;;;;59.13;20.08;;;-2.00;70.90;;;;;;4911851;28;114722;-79
2024/01/12 06:39:46;;;;;;;52.17;20.27;;;-2.10;71.00;;;;;;4940097;28;114636;-80
2024/01/12 06:42:14;;;;;;;52.40;20.33;;;-2.10;71.00;;;;;;4920303;28;115010;-81
2024/01/12 06:44:41;;;;;;;51.42;18.85;;;-2.00;71.10;;;;;;4928691;28;115116;-80
2024/01/12 06:47:09;;;;;;;56.10;20.15;;;-2.00;71.20;;;;;;4936696;28;114969;-80
2024/01/12 06:49:37;;;;;;;56.10;18.90;;;-2.00;71.20;;;;;;4919932;28;114541;-82
2024/01/12 06:52:09;;;;;;;48.20;17.80;;;-2.00;71.30;;;;;;4940727;28;114845;-81
2024/01/12 06:54:37;;;;;;;55.58;19.33;;;-2.00;71.30;;;;;;4926214;28;115114;-82
2024/01/12 06:57:04;;;;;;;56.97;19.50;;;-2.00;71.40;;;;;;4899717;28;114632;-81
2024/01/12 06:59:35;;;;;;;48.20;18.58;;;-2.00;71.50;;;;;;4926443;28;115204;-82
2024/01/12 07:02:08;;;;;;;58.60;19.08;;;-2.00;71.50;;;;;;4926974;28;114668;-82
2024/01/12 07:04:38;;;;;;;53.17;18.17;;;-2.00;71.50;;;;;;4927626;28;115100;-81
2024/01/12 07:07:10;;;;;;;55.30;19.00;;;-2.00;71.50;;;;;;4934507;28;117367;-82
2024/01/12 07:09:40;;;;;;;53.25;20.40;;;-2.00;71.50;;;;;;4924616;28;115011;-81
2024/01/12 07:12:16;;;;;;;51.90;19.20;;;-2.00;71.60;;;;;;4915570;28;114784;-82
2024/01/12 07:14:44;;;;;;;58.95;21.30;;;-2.00;71.60;;;;;;4906971;28;117448;-82
2024/01/12 07:17:11;;;;;;;54.97;21.50;;;-1.90;71.70;;;;;;4932642;28;114744;-81
2024/01/12 07:19:38;;;;;;;56.60;20.38;;;-2.00;71.70;;;;;;4923979;28;114743;-82
2024/01/12 07:22:06;;;;;;;58.42;22.20;;;-2.00;71.70;;;;;;4922518;28;114745;-81
2024/01/12 07:24:36;;;;;;;63.00;23.23;;;-2.00;71.70;;;;;;4924951;28;115223;-82
2024/01/12 07:27:03;;;;;;;54.58;20.08;;;-1.90;71.70;;;;;;4924530;28;114589;-82
2024/01/12 07:29:35;;;;;;;67.00;21.40;;;-1.90;71.70;;;;;;4931886;28;114573;-80
2024/01/12 07:32:02;;;;;;;57.92;21.30;;;-1.90;71.80;;;;;;4927073;28;115072;-81
2024/01/12 07:34:30;;;;;;;60.42;20.35;;;-1.90;71.80;;;;;;4923322;28;115719;-83
2024/01/12 07:37:01;;;;;;;59.35;21.20;;;-1.90;71.80;;;;;;4938399;28;116295;-81
2024/01/12 07:39:30;;;;;;;58.55;21.35;;;-1.80;71.80;;;;;;4935544;28;114698;-81
2024/01/12 07:41:57;;;;;;;64.97;24.08;;;-1.80;71.80;;;;;;4910836;28;114852;-81
2024/01/12 07:44:25;;;;;;;58.20;21.75;;;-1.80;71.70;;;;;;4922899;28;115687;-82
2024/01/12 07:46:53;;;;;;;55.70;22.17;;;-1.70;71.80;;;;;;4923589;28;114636;-81
2024/01/12 07:49:20;;;;;;;51.05;19.30;;;-1.70;71.70;;;;;;4930113;28;115417;-81
2024/01/12 07:51:51;;;;;;;52.38;19.60;;;-1.70;71.70;;;;;;4910424;28;114564;-81
2024/01/12 07:54:19;;;;;;;48.85;19.73;;;-1.70;71.70;;;;;;4906565;28;115132;-82
2024/01/12 07:56:47;;;;;;;52.85;20.67;;;-1.60;71.70;;;;;;4910654;28;114754;-81
2024/01/12 07:59:17;;;;;;;57.55;21.23;;;-1.60;71.60;;;;;;4907419;28;114615;-82
2024/01/12 08:01:51;;;;;;;59.15;22.63;;;-1.60;71.70;;;;;;4935363;28;114629;-80
2024/01/12 08:04:19;;;;;;;59.08;22.45;;;-1.60;71.70;;;;;;4909521;28;116537;-81
2024/01/12 08:06:46;;;;;;;64.32;22.85;;;-1.60;71.60;;;;;;4910577;28;114849;-81
2024/01/12 08:09:19;;;;;;;56.10;22.63;;;-1.60;71.70;;;;;;4919906;28;114511;-81
2024/01/12 08:11:49;;;;;;;66.32;23.60;;;-1.50;71.70;;;;;;4923837;28;115050;-81
2024/01/12 08:14:16;;;;;;;56.45;22.02;;;-1.50;71.70;;;;;;4905537;28;115269;-81
2024/01/12 08:16:44;;;;;;;66.25;23.00;;;-1.50;71.60;;;;;;4917053;28;114764;-80
2024/01/12 08:19:12;;;;;;;67.15;23.75;;;-1.50;71.60;;;;;;4917844;28;114329;-80
2024/01/12 08:21:39;;;;;;;74.35;25.60;;;-1.40;71.70;;;;;;4927273;28;114633;-80
2024/01/12 08:24:21;;;;;;;74.53;27.25;;;-1.40;71.70;;;;;;4926255;28;115433;-80
2024/01/12 08:26:48;;;;;;;72.03;26.02;;;-1.40;71.60;;;;;;4924005;28;114623;-80
2024/01/12 08:29:18;;;;;;;65.55;22.95;;;-1.40;71.60;;;;;;4909604;28;118199;-81
2024/01/12 08:31:45;;;;;;;66.63;23.73;;;-1.40;71.60;;;;;;4914215;28;114845;-80
2024/01/12 08:34:13;;;;;;;66.00;22.98;;;-1.40;71.60;;;;;;4936612;28;115200;-81
2024/01/12 08:36:40;;;;;;;59.83;22.15;;;-1.40;71.50;;;;;;4924052;28;116392;-81
2024/01/12 08:39:07;;;;;;;67.38;22.83;;;-1.40;71.50;;;;;;4926613;28;115025;-80
2024/01/12 08:41:37;;;;;;;63.65;21.42;;;-1.40;71.50;;;;;;4924187;28;115095;-81
2024/01/12 08:44:06;;;;;;;52.45;19.10;;;-1.50;71.50;;;;;;4926205;28;116168;-80
2024/01/12 08:46:33;;;;;;;69.90;23.08;;;-1.50;71.50;;;;;;4911069;28;117898;-80
2024/01/12 08:49:01;;;;;;;67.00;23.30;;;-1.50;71.60;;;;;;4917792;28;115309;-79
2024/01/12 08:51:31;;;;;;;64.00;22.23;;;-1.40;71.70;;;;;;4928189;28;114527;-81
2024/01/12 08:53:59;;;;;;;65.57;24.33;;;-1.40;71.70;;;;;;4926086;28;115035;-81
2024/01/12 08:56:26;;;;;;;73.45;23.63;;;-1.40;71.70;;;;;;4911354;28;114877;-81
2024/01/12 08:58:54;;;;;;;68.47;22.77;;;-1.40;71.70;;;;;;4926841;28;114287;-80
2024/01/12 09:01:22;;;;;;;75.18;24.08;;;-1.40;71.70;;;;;;4911638;28;114662;-81
2024/01/12 09:03:51;;;;;;;74.78;25.25;;;-1.40;71.70;;;;;;4925365;28;115042;-79
2024/01/12 09:06:23;;;;;;;63.50;22.00;;;-1.30;71.70;;;;;;4891929;28;114642;-81
2024/01/12 09:08:55;;;;;;;64.25;21.63;;;-1.40;71.60;;;;;;4908261;28;114488;-81
2024/01/12 09:11:23;;;;;;;65.85;22.35;;;-1.30;71.70;;;;;;4923898;28;114604;-81
2024/01/12 09:13:50;;;;;;;69.57;24.35;;;-1.30;71.70;;;;;;4907277;28;115890;-79
2024/01/12 09:16:18;;;;;;;71.18;25.30;;;-1.30;71.60;;;;;;4906500;28;115868;-81
2024/01/12 09:18:45;;;;;;;69.80;24.25;;;-1.30;71.60;;;;;;4923637;28;114483;-80
2024/01/12 09:21:15;;;;;;;71.43;24.27;;;-1.30;71.60;;;;;;4919955;28;114419;-81
2024/01/12 09:23:45;;;;;;;87.00;31.30;;;-1.40;71.60;;;;;;4922242;28;115199;-80
2024/01/12 09:26:13;;;;;;;81.95;28.05;;;-1.30;71.70;;;;;;4923003;28;116732;-79
2024/01/12 09:28:40;;;;;;;76.15;24.83;;;-1.30;71.70;;;;;;4919293;28;114439;-80
2024/01/12 09:31:08;;;;;;;80.15;27.02;;;-1.30;71.70;;;;;;4926747;28;114567;-80
2024/01/12 09:33:35;;;;;;;78.63;27.73;;;-1.30;71.70;;;;;;4925645;28;115126;-79
2024/01/12 09:36:03;;;;;;;75.35;24.45;;;-1.30;71.70;;;;;;4925718;28;115161;-80
2024/01/12 09:38:31;;;;;;;77.25;27.92;;;-1.20;71.70;;;;;;4942725;28;116204;-81
2024/01/12 09:41:00;;;;;;;72.18;27.83;;;-1.10;71.70;;;;;;4929644;28;114394;-81
2024/01/12 09:43:31;;;;;;;76.65;26.13;;;-1.00;71.80;;;;;;4922721;28;115180;-80
2024/01/12 09:46:02;;;;;;;74.75;26.70;;;-1.00;71.80;;;;;;4907091;28;114646;-81
2024/01/12 09:48:29;;;;;;;67.43;25.48;;;-0.90;71.90;;;;;;4921731;28;114405;-81
2024/01/12 09:50:58;;;;;;;72.28;25.88;;;-0.90;71.70;;;;;;4926265;28;114717;-82
2024/01/12 09:53:26;;;;;;;64.10;22.65;;;-0.90;71.50;;;;;;4942299;28;115101;-82
2024/01/12 09:55:53;;;;;;;63.78;23.02;;;-0.80;71.40;;;;;;4929473;28;115140;-81
2024/01/12 09:58:38;;;;;;;65.80;25.63;;;-0.90;71.30;;;;;;4926428;28;115038;-81
2024/01/12 10:01:17;;;;;;;57.88;21.67;;;-0.90;71.30;;;;;;4915809;28;114469;-83
2024/01/12 10:03:45;;;;;;;57.60;23.27;;;-0.90;71.30;;;;;;4894676;28;116838;-80
2024/01/12 10:06:12;;;;;;;58.13;21.92;;;-0.90;71.20;;;;;;4939931;28;114834;-85
2024/01/12 10:08:43;;;;;;;48.50;20.23;;;-0.90;71.10;;;;;;4910020;28;114774;-82
2024/01/12 10:11:13;;;;;;;56.05;21.27;;;-0.80;71.10;;;;;;4922780;28;114486;-81
2024/01/12 10:13:49;;;;;;;57.53;19.83;;;-0.80;71.10;;;;;;4921309;28;115034;-81
2024/01/12 10:16:17;;;;;;;56.80;21.42;;;-0.70;71.00;;;;;;4907234;28;115923;-81
2024/01/12 10:18:45;;;;;;;57.75;21.45;;;-0.70;71.00;;;;;;4908757;28;114916;-81
2024/01/12 10:21:15;;;;;;;58.13;22.00;;;-0.60;70.90;;;;;;4906371;28;114557;-84
2024/01/12 10:23:43;;;;;;;57.75;21.08;;;-0.50;70.80;;;;;;4905215;28;115780;-82
2024/01/12 10:26:15;;;;;;;55.63;21.98;;;-0.40;70.80;;;;;;4925307;28;114904;-81
2024/01/12 10:28:44;;;;;;;52.08;19.90;;;-0.40;70.60;;;;;;4914114;28;114770;-81
2024/01/12 10:31:11;;;;;;;54.45;20.92;;;-0.30;70.40;;;;;;4929252;28;114488;-80
2024/01/12 10:33:41;;;;;;;52.10;20.65;;;-0.30;70.40;;;;;;4921874;28;115853;-81
2024/01/12 10:36:18;;;;;;;56.65;22.90;;;-0.30;70.20;;;;;;4935621;28;114544;-81
2024/01/12 10:38:45;;;;;;;54.35;20.55;;;-0.30;70.10;;;;;;4940999;28;114807;-81
2024/01/12 10:41:13;;;;;;;50.78;20.60;;;-0.20;70.00;;;;;;4942038;28;114609;-81
2024/01/12 10:43:40;;;;;;;48.58;19.88;;;-0.30;69.80;;;;;;4923623;28;116594;-81
2024/01/12 10:46:23;;;;;;;54.20;21.33;;;-0.30;69.70;;;;;;4925257;28;114889;-81
2024/01/12 10:49:15;;;;;;;53.33;21.70;;;-0.30;69.70;;;;;;4921876;28;114898;-81
2024/01/12 10:52:12;;;;;;;56.33;21.67;;;-0.30;69.70;;;;;;4922896;28;114597;-81
2024/01/12 10:55:07;;;;;;;48.20;19.88;;;-0.40;69.60;;;;;;4924242;28;117968;-80
2024/01/12 10:57:35;;;;;;;53.53;19.80;;;-0.40;69.60;;;;;;4933869;28;115059;-80
2024/01/12 11:00:05;;;;;;;50.78;20.55;;;-0.50;69.60;;;;;;4917706;28;114535;-80
2024/01/12 11:02:32;;;;;;;45.20;18.60;;;-0.40;69.60;;;;;;4933204;28;114647;-80
2024/01/12 11:05:00;;;;;;;50.60;21.15;;;-0.60;69.50;;;;;;4921571;28;115512;-81
2024/01/12 11:07:27;;;;;;;45.08;17.45;;;-0.60;69.60;;;;;;4906021;28;114874;-80
2024/01/12 11:09:55;;;;;;;42.08;17.52;;;-0.70;69.60;;;;;;4933134;28;114544;-80
2024/01/12 11:12:36;;;;;;;43.00;17.98;;;-0.70;69.60;;;;;;4930742;28;114485;-81
2024/01/12 11:15:05;;;;;;;45.30;18.38;;;-0.70;69.60;;;;;;4932729;28;115641;-82
2024/01/12 11:17:36;;;;;;;47.78;19.52;;;-0.70;69.60;;;;;;4922777;28;114752;-81
2024/01/12 11:20:10;;;;;;;45.60;19.88;;;-0.80;69.70;;;;;;4908467;28;115211;-81
2024/01/12 11:22:40;;;;;;;43.20;16.40;;;-0.80;69.80;;;;;;4908045;28;114391;-80
2024/01/12 11:25:09;;;;;;;44.85;17.70;;;-0.90;69.70;;;;;;4924733;28;116910;-81
2024/01/12 11:27:41;;;;;;;44.67;17.88;;;-0.90;69.80;;;;;;4940272;28;114843;-81
2024/01/12 11:30:11;;;;;;;37.85;15.82;;;-0.80;70.00;;;;;;4922673;28;114595;-81
2024/01/12 11:32:49;;;;;;;44.08;16.98;;;-0.80;69.90;;;;;;4910804;28;114634;-81
2024/01/12 11:35:18;;;;;;;38.85;16.08;;;-0.90;69.90;;;;;;4922157;28;115156;-81
2024/01/12 11:38:09;;;;;;;40.08;15.27;;;-0.80;70.00;;;;;;4924099;28;114600;-81
2024/01/12 11:40:37;;;;;;;38.80;15.68;;;-0.80;70.00;;;;;;4925076;28;114504;-80
2024/01/12 11:43:05;;;;;;;42.95;17.45;;;-0.80;69.90;;;;;;4920039;28;114704;-81
2024/01/12 11:45:34;;;;;;;39.30;16.77;;;-0.80;69.80;;;;;;4886125;28;115300;-81
2024/01/12 11:48:03;;;;;;;36.72;16.83;;;-0.80;69.70;;;;;;4924632;28;114810;-81
2024/01/12 11:50:33;;;;;;;36.40;15.57;;;-0.70;69.60;;;;;;4919706;28;114687;-80
2024/01/12 11:53:01;;;;;;;35.38;15.27;;;-0.60;69.60;;;;;;4926174;28;114584;-81
2024/01/12 11:55:30;;;;;;;37.70;15.25;;;-0.60;69.60;;;;;;4924629;28;115304;-81
2024/01/12 11:58:00;;;;;;;38.90;16.45;;;-0.60;69.50;;;;;;4940967;28;114680;-81
2024/01/12 12:00:27;;;;;;;35.65;16.27;;;-0.50;69.50;;;;;;4925992;28;114436;-81
2024/01/12 12:02:55;;;;;;;38.65;16.20;;;-0.50;69.30;;;;;;4926485;28;114289;-81
2024/01/12 12:05:25;;;;;;;37.00;15.43;;;-0.40;69.30;;;;;;4925980;28;115339;-81
2024/01/12 12:07:56;;;;;;;36.13;16.55;;;-0.50;69.20;;;;;;4928290;28;116597;-81
2024/01/12 12:10:25;;;;;;;34.17;15.38;;;-0.40;69.10;;;;;;4945890;28;114340;-81
2024/01/12 12:13:10;;;;;;;36.50;15.82;;;-0.40;69.00;;;;;;4931454;28;114440;-81
2024/01/12 12:15:38;;;;;;;36.05;14.65;;;-0.40;69.00;;;;;;4944150;28;117190;-81
2024/01/12 12:18:06;;;;;;;40.10;15.57;;;-0.40;69.00;;;;;;4931622;28;115648;-81
2024/01/12 12:20:34;;;;;;;36.22;16.85;;;-0.40;68.90;;;;;;4928910;28;114837;-81
2024/01/12 12:23:01;;;;;;;35.10;16.30;;;-0.40;68.70;;;;;;4933752;28;114517;-81
2024/01/12 12:25:31;;;;;;;35.28;16.10;;;-0.40;68.60;;;;;;4924962;28;116020;-80